Time;durP1;ratioP1;P1;durP2;ratioP2;P2;SDS_P1;SDS_P2;PMS_P1;PMS_P2;Temp;Humidity;BMP_temperature;BMP_pressure;BME280_temperature;BME280_humidity;BME280_pressure;Samples;Min_cycle;Max_cycle;Signal;HPM_P1;HPM_P2
2022/09/19 00:01:49;;;;;;;9.18;4.45;;;;;;;13.82;86.29;96832.03;5092424;28;20138;-62
2022/09/19 00:04:22;;;;;;;8.18;5.47;;;;;;;13.88;85.96;96824.78;5074934;28;20094;-62
2022/09/19 00:06:53;;;;;;;9.13;4.85;;;;;;;13.91;85.77;96846.28;5092655;28;20495;-62
2022/09/19 00:09:23;;;;;;;9.13;6.15;;;;;;;13.95;85.71;96847.06;5092637;28;20059;-62
2022/09/19 00:11:51;;;;;;;7.88;5.30;;;;;;;13.95;85.59;96830.28;5092255;28;20515;-62
2022/09/19 00:14:23;;;;;;;8.18;4.85;;;;;;;14.00;85.20;96821.41;5092490;28;20048;-62
2022/09/19 00:16:56;;;;;;;9.52;6.03;;;;;;;14.03;85.59;96818.56;5092738;28;20048;-63
2022/09/19 00:19:23;;;;;;;9.57;5.32;;;;;;;14.07;85.29;96815.75;5092374;28;20056;-62
2022/09/19 00:21:54;;;;;;;7.38;5.10;;;;;;;14.08;84.93;96812.53;5092576;28;20079;-62
2022/09/19 00:27:09;;;;;;;8.95;5.88;;;;;;;14.09;84.98;96797.31;5091837;28;20055;-61
2022/09/19 00:29:38;;;;;;;7.90;5.55;;;;;;;14.11;84.61;96788.50;5092503;28;20473;-61
2022/09/19 00:32:07;;;;;;;12.25;7.68;;;;;;;14.11;84.63;96792.09;5092280;28;20055;-61
2022/09/19 00:34:35;;;;;;;10.25;6.53;;;;;;;14.13;84.53;96781.31;5101186;28;20116;-61
2022/09/19 00:37:02;;;;;;;8.35;6.15;;;;;;;14.14;84.15;96782.88;5112616;28;20043;-61
2022/09/19 00:39:30;;;;;;;8.32;5.90;;;;;;;14.16;84.11;96791.63;5112817;28;20104;-61
2022/09/19 00:41:57;;;;;;;7.63;5.85;;;;;;;14.16;84.29;96768.47;5112632;28;20088;-61
2022/09/19 00:44:24;;;;;;;7.80;5.78;;;;;;;14.19;84.38;96779.63;5113075;28;20055;-61
2022/09/19 00:47:06;;;;;;;10.13;5.97;;;;;;;14.22;84.03;96759.19;5112617;28;20052;-62
2022/09/19 00:49:37;;;;;;;10.18;5.65;;;;;;;14.23;84.03;96774.78;5114087;28;20048;-61
2022/09/19 00:52:10;;;;;;;7.78;5.55;;;;;;;14.26;83.86;96775.94;5116558;28;20093;-61
2022/09/19 00:54:43;;;;;;;7.60;4.50;;;;;;;14.27;83.91;96760.75;5098572;28;20109;-62
2022/09/19 00:57:12;;;;;;;7.55;4.30;;;;;;;14.28;83.97;96751.13;5114776;28;20047;-61
2022/09/19 00:59:43;;;;;;;6.65;4.68;;;;;;;14.30;83.88;96768.28;5096037;28;20048;-61
2022/09/19 01:02:10;;;;;;;5.63;4.32;;;;;;;14.28;83.56;96740.75;5095908;28;20090;-61
2022/09/19 01:04:38;;;;;;;8.55;4.80;;;;;;;14.35;83.98;96748.22;5096203;28;20044;-61
2022/09/19 01:07:21;;;;;;;6.95;4.55;;;;;;;14.39;83.33;96755.31;5096168;28;20056;-61
2022/09/19 01:10:03;;;;;;;8.80;5.00;;;;;;;14.42;83.23;96748.09;5095686;28;20048;-61
2022/09/19 01:12:46;;;;;;;9.50;4.78;;;;;;;14.45;83.37;96752.84;5095734;28;20056;-61
2022/09/19 01:15:32;;;;;;;6.05;4.10;;;;;;;14.47;83.10;96756.00;5095613;28;20040;-61
2022/09/19 01:18:02;;;;;;;8.30;5.00;;;;;;;14.47;83.04;96767.19;5095224;28;20085;-60
2022/09/19 01:20:54;;;;;;;6.33;4.30;;;;;;;14.44;82.85;96763.25;5095349;28;20047;-61
2022/09/19 01:23:53;;;;;;;6.80;4.35;;;;;;;14.43;83.43;96755.28;5097140;28;20044;-61
2022/09/19 01:26:43;;;;;;;7.38;4.38;;;;;;;14.43;83.28;96749.69;5103114;28;20098;-61
2022/09/19 01:29:25;;;;;;;9.98;4.78;;;;;;;14.44;83.10;96762.44;5115390;28;20514;-61
2022/09/19 01:31:57;;;;;;;8.68;4.97;;;;;;;14.45;83.14;96764.03;5116051;28;20043;-61
2022/09/19 01:34:37;;;;;;;7.20;4.20;;;;;;;14.47;83.08;96739.22;5115765;28;20051;-61
2022/09/19 01:37:08;;;;;;;7.18;4.30;;;;;;;14.48;83.21;96747.19;5115894;28;20096;-61
2022/09/19 01:39:39;;;;;;;7.50;4.25;;;;;;;14.50;82.96;96744.75;5115875;28;20494;-63
2022/09/19 01:42:06;;;;;;;6.60;4.38;;;;;;;14.48;83.16;96740.81;5115691;28;20048;-64
2022/09/19 01:44:33;;;;;;;6.68;3.95;;;;;;;14.48;83.10;96744.38;5115199;28;20047;-63
2022/09/19 01:47:36;;;;;;;8.10;5.15;;;;;;;14.50;82.83;96732.75;5108500;28;20036;-63
2022/09/19 01:50:36;;;;;;;8.15;3.72;;;;;;;14.48;83.09;96729.63;5095308;28;20139;-63
2022/09/19 01:53:46;;;;;;;9.75;4.75;;;;;;;14.45;82.85;96730.47;5092166;28;20083;-63
2022/09/19 01:56:39;;;;;;;5.85;3.78;;;;;;;14.44;83.22;96707.31;5067394;28;20063;-63
2022/09/19 01:59:24;;;;;;;6.75;4.07;;;;;;;14.46;82.68;96715.25;5112553;28;20463;-64
2022/09/19 02:02:28;;;;;;;6.57;4.40;;;;;;;14.43;82.60;96711.31;5114658;28;20052;-63
2022/09/19 02:05:05;;;;;;;7.93;5.05;;;;;;;14.46;82.94;96718.88;5115138;28;20046;-63
2022/09/19 02:07:45;;;;;;;8.50;4.30;;;;;;;14.47;83.00;96703.66;5115152;28;20058;-63
2022/09/19 02:10:15;;;;;;;;;;;;;;;14.37;82.79;96715.81;5116028;28;20407;-64
2022/09/19 02:12:43;;;;;;;8.98;5.10;;;;;;;14.41;82.85;96710.16;5114745;28;19931;-64
2022/09/19 02:15:14;;;;;;;7.95;4.70;;;;;;;14.47;82.79;96711.25;5115162;28;20043;-63
2022/09/19 02:17:55;;;;;;;7.65;5.30;;;;;;;14.49;82.63;96709.63;5114753;28;20043;-62
2022/09/19 02:20:31;;;;;;;11.35;4.93;;;;;;;14.53;83.01;96735.50;5115151;28;20043;-62
2022/09/19 02:23:04;;;;;;;8.05;5.15;;;;;;;14.54;82.99;96709.09;5114591;28;20054;-62
2022/09/19 02:25:34;;;;;;;7.25;5.15;;;;;;;14.54;82.84;96716.72;5096358;28;20138;-62
2022/09/19 02:28:09;;;;;;;18.58;5.32;;;;;;;14.56;82.57;96709.47;5114384;28;20055;-63
2022/09/19 02:30:37;;;;;;;11.73;5.32;;;;;;;14.56;83.07;96722.66;5114622;28;20056;-62
2022/09/19 02:33:06;;;;;;;6.85;4.75;;;;;;;14.56;82.91;96714.28;5096478;28;20074;-62
2022/09/19 02:35:50;;;;;;;13.55;5.97;;;;;;;14.58;82.46;96706.25;5113587;28;20040;-62
2022/09/19 02:38:49;;;;;;;6.35;4.47;;;;;;;14.56;82.71;96719.88;5093899;28;20052;-63
2022/09/19 02:41:22;;;;;;;6.15;4.30;;;;;;;14.55;82.45;96707.09;5081513;28;20215;-63
2022/09/19 02:44:30;;;;;;;7.30;4.43;;;;;;;14.50;82.61;96704.78;5093875;28;20465;-62
2022/09/19 02:47:15;;;;;;;8.63;4.72;;;;;;;14.42;82.96;96703.34;5110175;28;20043;-62
2022/09/19 02:49:54;;;;;;;6.72;4.95;;;;;;;14.31;82.61;96680.38;5114247;28;20043;-63
2022/09/19 02:52:31;;;;;;;7.70;4.82;;;;;;;14.23;82.72;96685.31;5113982;28;20051;-63
2022/09/19 02:55:05;;;;;;;7.40;4.20;;;;;;;14.16;82.95;96679.00;5114311;28;20047;-62
2022/09/19 02:57:34;;;;;;;6.88;4.70;;;;;;;14.08;82.79;96681.13;5109263;28;20052;-63
2022/09/19 03:00:05;;;;;;;7.03;4.13;;;;;;;14.04;82.93;96677.59;5093730;28;20529;-62
2022/09/19 03:02:36;;;;;;;8.43;4.75;;;;;;;14.01;82.64;96677.66;5093789;28;20066;-62
2022/09/19 03:05:19;;;;;;;9.10;5.10;;;;;;;13.98;83.15;96681.31;5093582;28;20127;-62
2022/09/19 03:07:55;;;;;;;8.70;4.88;;;;;;;13.93;82.66;96688.19;5093960;28;20052;-62
2022/09/19 03:10:27;;;;;;;6.68;4.20;;;;;;;13.90;82.82;96699.41;5093281;28;20046;-62
2022/09/19 03:12:58;;;;;;;7.60;4.80;;;;;;;13.88;83.12;96691.44;5093438;28;20055;-62
2022/09/19 03:15:32;;;;;;;7.22;4.28;;;;;;;13.83;82.82;96683.53;5093197;28;20066;-62
2022/09/19 03:18:01;;;;;;;7.32;4.90;;;;;;;13.83;82.97;96682.75;5093296;28;20051;-62
2022/09/19 03:20:28;;;;;;;7.72;4.03;;;;;;;13.83;82.74;96668.78;5093476;28;20071;-62
2022/09/19 03:22:55;;;;;;;6.68;3.95;;;;;;;13.90;82.73;96668.66;5092976;28;20047;-62
2022/09/19 03:25:25;;;;;;;6.25;3.53;;;;;;;13.97;82.30;96679.72;5093720;28;20040;-61
2022/09/19 03:27:52;;;;;;;6.85;4.05;;;;;;;14.04;82.05;96688.00;5092884;28;20056;-61
2022/09/19 03:30:19;;;;;;;8.18;3.78;;;;;;;14.13;81.57;96668.69;5093404;28;20044;-61
2022/09/19 03:32:46;;;;;;;6.20;4.00;;;;;;;14.18;81.04;96673.78;5092842;28;20441;-60
2022/09/19 03:35:14;;;;;;;9.20;3.45;;;;;;;14.22;80.85;96677.31;5100110;28;20143;-61
2022/09/19 03:37:41;;;;;;;6.93;3.63;;;;;;;14.25;80.66;96687.66;5113148;28;20047;-62
2022/09/19 03:40:09;;;;;;;6.82;3.55;;;;;;;14.26;80.41;96670.47;5113382;28;20502;-62
2022/09/19 03:42:38;;;;;;;4.40;3.03;;;;;;;14.25;80.71;96670.91;5113300;28;20059;-63
2022/09/19 03:45:05;;;;;;;5.60;3.20;;;;;;;14.29;79.93;96668.81;5108148;28;20056;-62
2022/09/19 03:47:33;;;;;;;10.73;2.90;;;;;;;14.30;79.72;96668.38;5092810;28;20044;-62
2022/09/19 03:49:59;;;;;;;7.45;2.88;;;;;;;14.29;79.74;96674.41;5093149;28;20043;-62
2022/09/19 03:52:27;;;;;;;8.40;2.13;;;;;;;14.28;78.71;96667.25;5092778;28;20048;-63
2022/09/19 03:54:54;;;;;;;5.30;2.30;;;;;;;14.25;78.59;96665.31;5092800;28;20054;-62
2022/09/19 03:57:21;;;;;;;5.00;2.30;;;;;;;14.27;78.01;96679.66;5092440;28;20060;-62
2022/09/19 03:59:48;;;;;;;2.88;1.98;;;;;;;14.23;76.66;96695.66;5092715;28;20055;-62
2022/09/19 04:02:15;;;;;;;5.45;1.60;;;;;;;14.17;76.13;96686.16;5092820;28;20052;-62
2022/09/19 04:04:42;;;;;;;4.43;1.85;;;;;;;14.12;74.46;96683.88;5092673;28;20481;-62
2022/09/19 04:07:09;;;;;;;1.75;1.20;;;;;;;14.05;71.18;96711.94;5092659;28;20040;-62
2022/09/19 04:09:36;;;;;;;3.08;1.17;;;;;;;13.92;69.40;96680.22;5092565;28;20399;-62
2022/09/19 04:12:04;;;;;;;3.42;1.33;;;;;;;13.87;69.83;96689.06;5074746;28;20048;-62
2022/09/19 04:14:34;;;;;;;2.03;1.03;;;;;;;13.87;68.90;96708.63;5092388;28;20524;-62
2022/09/19 04:17:01;;;;;;;1.13;0.70;;;;;;;13.77;65.19;96690.81;5074769;28;20040;-63
2022/09/19 04:19:51;;;;;;;2.72;0.80;;;;;;;13.69;65.17;96688.56;5092572;28;20052;-64
2022/09/19 04:22:19;;;;;;;2.58;0.80;;;;;;;13.69;64.97;96694.94;5092533;28;20055;-63
2022/09/19 04:24:46;;;;;;;4.00;1.05;;;;;;;13.70;63.98;96696.50;5103643;28;20043;-63
2022/09/19 04:27:13;;;;;;;5.05;0.80;;;;;;;13.69;64.11;96688.56;5116811;28;20059;-62
2022/09/19 04:29:46;;;;;;;5.50;0.80;;;;;;;13.71;63.71;96697.31;5116956;28;20130;-63
2022/09/19 04:32:15;;;;;;;5.07;1.00;;;;;;;13.70;63.49;96684.53;5116824;28;20097;-64
2022/09/19 04:34:43;;;;;;;0.50;0.50;;;;;;;13.66;63.29;96703.38;5110658;28;20052;-63
2022/09/19 04:37:10;;;;;;;3.58;0.60;;;;;;;13.65;63.19;96699.00;5096124;28;20063;-63
2022/09/19 04:39:37;;;;;;;3.92;1.02;;;;;;;13.66;62.46;96717.31;5096469;28;20105;-62
2022/09/19 04:42:04;;;;;;;1.30;0.80;;;;;;;13.52;61.95;96700.75;5078406;28;20491;-62
2022/09/19 04:44:34;;;;;;;4.20;0.73;;;;;;;13.38;62.33;96712.16;5096286;28;20404;-61
2022/09/19 04:47:01;;;;;;;3.25;0.60;;;;;;;13.43;62.61;96692.13;5096090;28;20406;-60
2022/09/19 04:49:34;;;;;;;2.65;0.70;;;;;;;13.49;62.84;96696.81;5096006;28;20070;-60
2022/09/19 04:52:02;;;;;;;1.15;0.70;;;;;;;13.54;62.99;96698.34;5095844;28;20051;-60
2022/09/19 04:54:35;;;;;;;1.83;0.93;;;;;;;13.59;62.86;96695.09;5095501;28;20052;-61
2022/09/19 04:57:06;;;;;;;4.95;0.80;;;;;;;13.53;62.60;96696.78;5096096;28;20108;-60
2022/09/19 04:59:34;;;;;;;3.63;0.80;;;;;;;13.50;62.80;96694.81;5116334;28;20055;-60
2022/09/19 05:02:02;;;;;;;2.45;0.80;;;;;;;13.49;62.90;96690.44;5115770;28;20096;-61
2022/09/19 05:04:29;;;;;;;2.65;0.90;;;;;;;13.45;62.46;96701.69;5116012;28;20494;-62
2022/09/19 05:06:56;;;;;;;1.33;0.80;;;;;;;13.32;62.24;96686.69;5115776;28;20085;-60
2022/09/19 05:09:24;;;;;;;3.47;0.75;;;;;;;13.26;62.62;96705.09;5115972;28;20131;-62
2022/09/19 05:11:55;;;;;;;1.52;0.63;;;;;;;13.22;62.64;96709.16;5115982;28;20050;-62
2022/09/19 05:14:26;;;;;;;2.78;0.70;;;;;;;13.12;62.44;96698.94;5115670;28;20222;-61
2022/09/19 05:16:54;;;;;;;1.33;0.70;;;;;;;13.09;63.01;96699.75;5097574;28;20105;-61
2022/09/19 05:19:22;;;;;;;1.38;0.80;;;;;;;13.09;63.08;96716.50;5115920;28;20086;-61
2022/09/19 05:21:52;;;;;;;2.35;1.02;;;;;;;13.03;62.96;96712.59;5116110;28;20101;-62
2022/09/19 05:24:19;;;;;;;;;;;;;;;12.87;62.96;96694.41;5108432;28;20048;-60
2022/09/19 05:26:46;;;;;;;3.55;1.27;;;;;;;12.90;63.11;96699.16;5095277;28;20280;-61
2022/09/19 05:29:14;;;;;;;6.30;0.90;;;;;;;12.87;62.89;96691.63;5094981;28;20404;-60
2022/09/19 05:31:44;;;;;;;5.78;0.70;;;;;;;12.90;63.19;96687.19;5095116;28;20055;-61
2022/09/19 05:34:13;;;;;;;6.43;0.70;;;;;;;12.98;62.93;96683.13;5094999;28;20052;-61
2022/09/19 05:36:41;;;;;;;2.83;0.70;;;;;;;13.01;63.18;96693.47;5085229;28;20484;-61
2022/09/19 05:39:09;;;;;;;1.17;0.70;;;;;;;13.06;63.09;96687.44;5075141;28;20084;-61
2022/09/19 05:41:38;;;;;;;2.90;1.00;;;;;;;13.09;62.90;96699.75;5056868;28;20189;-61
2022/09/19 05:44:05;;;;;;;2.33;0.80;;;;;;;13.11;62.83;96697.34;5074915;28;20045;-61
2022/09/19 05:46:31;;;;;;;1.50;0.70;;;;;;;13.08;62.91;96703.78;5074858;28;20565;-61
2022/09/19 05:48:59;;;;;;;7.72;0.77;;;;;;;13.11;62.53;96700.16;5094848;28;20044;-61
2022/09/19 05:51:25;;;;;;;2.92;0.63;;;;;;;13.38;62.26;96696.16;5095172;28;20052;-61
2022/09/19 05:53:52;;;;;;;1.75;0.70;;;;;;;13.62;61.17;96706.19;5094772;28;20044;-61
2022/09/19 05:56:20;;;;;;;2.45;0.70;;;;;;;13.72;60.78;96687.72;5094860;28;20044;-61
2022/09/19 05:58:47;;;;;;;4.65;0.85;;;;;;;13.67;61.03;96693.75;5061099;28;20074;-61
2022/09/19 06:01:14;;;;;;;5.18;0.68;;;;;;;13.48;61.20;96717.59;5056086;28;20096;-61
2022/09/19 06:03:42;;;;;;;1.50;0.70;;;;;;;13.29;61.61;96686.75;5074450;28;20068;-61
2022/09/19 06:06:13;;;;;;;6.97;1.00;;;;;;;13.27;62.26;96692.75;5074507;28;20410;-63
2022/09/19 06:08:44;;;;;;;4.82;0.80;;;;;;;13.36;62.65;96700.59;5074346;28;20052;-64
2022/09/19 06:11:11;;;;;;;1.75;0.70;;;;;;;13.29;62.58;96698.69;5075067;28;20045;-64
2022/09/19 06:16:24;;;;;;;1.30;0.70;;;;;;;13.40;62.18;96698.53;5074293;28;20412;-62
2022/09/19 06:18:51;;;;;;;0.77;0.70;;;;;;;13.55;61.81;96733.44;5073744;28;20045;-62
2022/09/19 06:21:18;;;;;;;6.95;0.70;;;;;;;13.42;60.70;96685.75;5081188;28;20079;-62
2022/09/19 06:23:44;;;;;;;0.35;0.35;;;;;;;13.20;60.96;96684.44;5074250;28;20106;-63
2022/09/19 06:26:11;;;;;;;6.47;0.80;;;;;;;12.91;61.73;96703.53;5074062;28;20508;-63
2022/09/19 06:28:41;;;;;;;1.67;0.80;;;;;;;12.78;62.90;96730.38;5089197;28;20060;-63
2022/09/19 06:31:09;;;;;;;1.05;0.70;;;;;;;12.65;63.42;96712.56;5094436;28;20056;-62
2022/09/19 06:33:35;;;;;;;2.72;0.52;;;;;;;12.61;63.78;96713.81;5093633;28;20058;-62
2022/09/19 06:36:02;;;;;;;3.83;0.60;;;;;;;12.60;64.04;96701.88;5095811;28;20052;-63
2022/09/19 06:38:33;;;;;;;3.20;0.50;;;;;;;12.56;64.10;96703.91;5105675;27;20053;-62
2022/09/19 06:41:00;;;;;;;1.77;0.80;;;;;;;12.40;64.89;96725.19;5098842;27;20093;-61
2022/09/19 06:43:27;;;;;;;3.30;0.63;;;;;;;12.17;65.87;96717.44;5096218;27;20572;-62
2022/09/19 06:45:54;;;;;;;0.40;0.40;;;;;;;12.19;65.99;96728.97;5093514;28;20079;-61
2022/09/19 06:48:20;;;;;;;2.00;0.50;;;;;;;12.15;66.22;96724.63;5093581;28;20082;-63
2022/09/19 06:50:48;;;;;;;1.73;0.70;;;;;;;12.01;66.77;96736.69;5114476;27;20043;-63
2022/09/19 06:53:16;;;;;;;3.35;0.65;;;;;;;11.97;66.95;96743.47;5097888;27;20108;-62
2022/09/19 06:55:43;;;;;;;0.80;0.50;;;;;;;11.78;67.63;96742.00;5093417;28;20048;-62
2022/09/19 06:58:13;;;;;;;;;;;;;;;11.54;68.78;96742.13;5096136;27;20453;-62
2022/09/19 07:00:42;;;;;;;1.30;0.60;;;;;;;11.56;69.09;96734.97;5093969;28;20289;-63
2022/09/19 07:03:12;;;;;;;0.75;0.50;;;;;;;11.62;68.81;96780.72;5093258;28;20130;-62
2022/09/19 07:05:45;;;;;;;0.65;0.50;;;;;;;11.47;69.01;96740.19;5106216;27;20502;-62
2022/09/19 07:08:13;;;;;;;0.63;0.47;;;;;;;11.60;68.57;96774.72;5082553;27;20042;-62
2022/09/19 07:10:44;;;;;;;1.08;0.65;;;;;;;11.93;67.86;96759.44;5115069;27;20051;-62
2022/09/19 07:13:14;;;;;;;0.38;0.38;;;;;;;12.27;66.55;96755.59;5112649;27;20052;-62
2022/09/19 07:15:42;;;;;;;0.73;0.52;;;;;;;12.45;65.81;96761.78;5082544;27;20483;-62
2022/09/19 07:18:11;;;;;;;1.88;0.40;;;;;;;12.59;64.79;96747.69;5112431;27;20052;-62
2022/09/19 07:20:38;;;;;;;1.17;0.40;;;;;;;12.61;64.26;96755.66;5103488;28;20052;-63
2022/09/19 07:23:13;;;;;;;3.28;0.40;;;;;;;12.99;63.03;96762.06;5113230;28;20071;-62
2022/09/19 07:25:41;;;;;;;2.35;0.30;;;;;;;13.11;61.67;96753.19;5108019;28;20044;-62
2022/09/19 07:28:11;;;;;;;2.00;0.52;;;;;;;13.13;60.72;96764.69;5096922;28;20126;-62
2022/09/19 07:30:38;;;;;;;4.95;0.43;;;;;;;13.22;59.72;96764.97;5096197;27;20079;-62
2022/09/19 07:33:10;;;;;;;2.92;0.30;;;;;;;13.12;60.30;96785.44;5078550;28;20098;-61
2022/09/19 07:35:41;;;;;;;1.45;0.40;;;;;;;12.96;59.94;96801.94;5097827;27;20051;-61
2022/09/19 07:38:14;;;;;;;6.63;0.52;;;;;;;12.70;59.43;96789.44;5123193;27;20135;-62
2022/09/19 07:40:42;;;;;;;0.88;0.30;;;;;;;12.48;59.62;96777.69;5112689;28;20082;-62
2022/09/19 07:43:13;;;;;;;0.22;0.22;;;;;;;12.37;59.98;96760.25;5123100;27;20253;-63
2022/09/19 07:45:51;;;;;;;0.30;0.30;;;;;;;12.33;59.74;96758.72;5118349;27;20047;-63
2022/09/19 07:48:19;;;;;;;5.18;0.40;;;;;;;12.18;60.20;96762.81;5092475;28;20134;-62
2022/09/19 07:50:47;;;;;;;2.28;0.40;;;;;;;11.94;60.19;96780.50;5092958;28;20048;-63
2022/09/19 07:53:22;;;;;;;1.77;0.40;;;;;;;11.82;60.50;96772.63;5121354;27;20422;-63
2022/09/19 07:55:54;;;;;;;0.93;0.80;;;;;;;11.90;60.36;96786.09;5117466;27;20487;-62
2022/09/19 07:58:23;;;;;;;5.43;0.57;;;;;;;11.88;60.62;96777.38;5102992;28;20506;-62
2022/09/19 08:00:50;;;;;;;0.75;0.30;;;;;;;11.92;60.61;96783.72;5112815;28;20108;-62
2022/09/19 08:03:19;;;;;;;0.80;0.40;;;;;;;11.82;60.45;96770.66;5096733;28;20502;-62
2022/09/19 08:05:49;;;;;;;0.38;0.30;;;;;;;11.74;60.89;96796.97;5092622;28;20044;-61
2022/09/19 08:08:18;;;;;;;1.02;0.40;;;;;;;11.60;60.87;96785.09;5092599;28;20044;-61
2022/09/19 08:10:45;;;;;;;0.68;0.45;;;;;;;11.61;61.26;96778.31;5093118;28;20451;-62
2022/09/19 08:13:15;;;;;;;4.30;0.73;;;;;;;11.53;61.02;96788.69;5092088;28;20044;-61
2022/09/19 08:15:44;;;;;;;1.80;0.65;;;;;;;11.46;61.49;96787.94;5093052;28;20052;-62
2022/09/19 08:18:14;;;;;;;2.15;0.60;;;;;;;11.40;61.74;96779.19;5091862;28;20048;-62
2022/09/19 08:20:41;;;;;;;0.68;0.38;;;;;;;11.52;61.36;96775.19;5092314;28;20464;-62
2022/09/19 08:23:11;;;;;;;4.25;0.80;;;;;;;11.55;61.07;96791.88;5092137;28;20048;-62
2022/09/19 08:25:42;;;;;;;0.70;0.43;;;;;;;11.61;61.12;96806.16;5093760;28;20470;-62
2022/09/19 08:28:10;;;;;;;1.88;0.50;;;;;;;11.66;60.63;96787.03;5092644;28;20054;-61
2022/09/19 08:30:37;;;;;;;1.27;0.50;;;;;;;11.62;60.70;96797.41;5092126;28;20106;-62
2022/09/19 08:33:06;;;;;;;0.70;0.50;;;;;;;11.63;60.57;96787.09;5092299;28;20070;-62
2022/09/19 08:35:39;;;;;;;6.55;1.48;;;;;;;11.75;60.47;96778.25;5092191;28;20055;-62
2022/09/19 08:38:10;;;;;;;2.80;0.60;;;;;;;11.84;60.40;96781.38;5092331;28;20044;-62
2022/09/19 08:40:40;;;;;;;5.68;1.52;;;;;;;11.76;60.29;96780.63;5092104;28;20050;-63
2022/09/19 08:43:17;;;;;;;1.00;0.57;;;;;;;11.71;59.97;96794.19;5092117;28;20143;-62
2022/09/19 08:46:02;;;;;;;0.77;0.45;;;;;;;11.72;60.29;96774.28;5106804;28;20094;-62
2022/09/19 08:48:48;;;;;;;1.17;0.60;;;;;;;11.81;60.02;96805.25;5112249;28;20043;-62
2022/09/19 08:51:40;;;;;;;0.77;0.50;;;;;;;11.82;59.75;96784.59;5118627;28;20050;-62
2022/09/19 08:54:14;;;;;;;1.80;0.70;;;;;;;11.93;59.64;96776.94;5119099;28;20575;-63
2022/09/19 08:56:43;;;;;;;5.88;0.70;;;;;;;12.04;59.19;96796.34;5105316;28;20097;-61
2022/09/19 08:59:15;;;;;;;0.77;0.47;;;;;;;12.04;58.68;96769.28;5109028;28;20074;-62
2022/09/19 09:01:43;;;;;;;1.58;0.90;;;;;;;11.93;58.97;96784.50;5100057;28;20126;-65
2022/09/19 09:04:31;;;;;;;1.45;0.50;;;;;;;11.99;58.89;96792.00;5095548;28;20105;-62
2022/09/19 09:07:46;;;;;;;3.15;0.65;;;;;;;11.96;58.99;96787.25;5104178;28;20040;-63
2022/09/19 09:10:29;;;;;;;1.77;0.80;;;;;;;11.98;58.89;96773.72;5097291;28;20089;-63
2022/09/19 09:13:15;;;;;;;10.07;0.70;;;;;;;11.97;59.19;96779.69;5104323;28;20052;-63
2022/09/19 09:16:06;;;;;;;7.97;1.10;;;;;;;12.00;59.47;96779.69;5109074;28;20097;-67
2022/09/19 09:19:00;;;;;;;11.73;0.60;;;;;;;11.86;60.32;96795.69;5103989;28;20035;-63
2022/09/19 09:22:10;;;;;;;0.75;0.57;;;;;;;11.71;61.32;96799.75;5112694;28;20422;-63
2022/09/19 09:24:39;;;;;;;0.60;0.47;;;;;;;11.59;62.09;96800.19;5110864;27;20123;-63
2022/09/19 09:27:15;;;;;;;7.10;0.70;;;;;;;11.52;62.85;96812.13;5108616;28;20047;-62
2022/09/19 09:29:53;;;;;;;3.53;0.60;;;;;;;11.34;63.71;96791.94;5113530;27;20950;-63
2022/09/19 09:32:30;;;;;;;0.85;0.50;;;;;;;10.97;65.80;96805.59;5111334;28;20052;-62
2022/09/19 09:35:07;;;;;;;4.93;0.57;;;;;;;10.93;66.05;96824.28;5118080;27;20039;-64
2022/09/19 09:37:53;;;;;;;5.18;0.70;;;;;;;10.98;65.78;96823.88;5105055;28;20078;-63
2022/09/19 09:43:14;;;;;;;1.33;0.50;;;;;;;10.98;66.20;96823.88;5105511;27;20044;-64
2022/09/19 09:45:49;;;;;;;4.22;0.60;;;;;;;11.04;66.56;96811.13;5097203;27;20040;-63
2022/09/19 09:48:21;;;;;;;5.55;0.70;;;;;;;11.18;66.17;96805.53;5128034;27;20505;-62
2022/09/19 09:51:08;;;;;;;9.18;0.65;;;;;;;11.29;66.29;96806.28;5120835;27;20055;-62
2022/09/19 09:54:04;;;;;;;1.00;0.50;;;;;;;11.23;66.11;96813.47;5111167;27;20082;-63
2022/09/19 09:56:49;;;;;;;0.70;0.47;;;;;;;11.12;66.44;96812.72;5094575;28;20078;-62
2022/09/19 10:06:09;;;;;;;2.83;0.45;;;;;;;11.10;66.33;96834.56;5050884;28;20052;-63
2022/09/19 10:08:39;;;;;;;5.75;2.50;;;;;;;11.16;66.68;96807.91;5110826;28;20076;-63
2022/09/19 10:11:15;;;;;;;2.77;1.43;;;;;;;11.23;66.54;96813.47;5101025;27;20101;-63
2022/09/19 10:14:02;;;;;;;4.75;0.55;;;;;;;11.16;66.60;96807.91;5094596;28;20056;-62
2022/09/19 10:16:32;;;;;;;0.60;0.40;;;;;;;11.16;66.67;96818.28;5094294;28;20067;-62
2022/09/19 10:19:06;;;;;;;0.70;0.50;;;;;;;11.05;66.83;96818.31;5094592;28;20097;-62
2022/09/19 10:21:33;;;;;;;1.17;0.40;;;;;;;10.95;67.67;96819.09;5093647;28;20056;-62
2022/09/19 10:24:00;;;;;;;5.07;0.73;;;;;;;10.93;67.77;96805.59;5094433;28;20564;-62
2022/09/19 10:26:29;;;;;;;1.05;0.63;;;;;;;10.91;68.10;96835.00;5102749;28;20142;-62
2022/09/19 10:29:00;;;;;;;2.95;0.60;;;;;;;10.90;67.85;96805.63;5096433;28;20463;-62
2022/09/19 10:31:34;;;;;;;1.75;0.95;;;;;;;10.92;67.63;96809.59;5094161;28;20147;-62
2022/09/19 10:34:07;;;;;;;1.67;1.00;;;;;;;10.88;68.44;96791.31;5094204;28;20519;-62
2022/09/19 10:36:46;;;;;;;4.30;0.68;;;;;;;10.93;68.44;96780.56;5094294;28;20089;-62
2022/09/19 10:39:16;;;;;;;1.90;0.80;;;;;;;11.02;68.12;96797.63;5093705;28;20396;-62
2022/09/19 10:41:43;;;;;;;6.22;0.70;;;;;;;10.98;67.90;96807.97;5093836;28;20328;-62
2022/09/19 10:44:21;;;;;;;1.15;0.65;;;;;;;10.87;68.70;96814.78;5093580;28;20113;-62
2022/09/19 10:46:55;;;;;;;1.08;0.50;;;;;;;10.77;69.25;96821.13;5072713;28;20052;-62
2022/09/19 10:49:28;;;;;;;2.45;0.95;;;;;;;10.67;69.84;96791.38;5073640;28;20089;-61
2022/09/19 10:51:59;;;;;;;1.83;0.80;;;;;;;10.70;69.83;96804.47;5073551;28;20466;-62
2022/09/19 10:54:42;;;;;;;1.10;1.00;;;;;;;10.68;69.98;96809.63;5073178;28;20098;-62
2022/09/19 10:57:40;;;;;;;1.95;0.70;;;;;;;10.69;70.42;96814.00;5073315;28;20450;-62
2022/09/19 11:00:28;;;;;;;8.23;2.50;;;;;;;10.54;71.21;96820.78;5073202;28;20048;-61
2022/09/19 11:03:15;;;;;;;2.17;0.90;;;;;;;10.44;70.89;96789.00;5073097;28;20048;-62
2022/09/19 11:05:43;;;;;;;1.77;0.57;;;;;;;10.45;71.37;96789.81;5073001;28;20058;-62
2022/09/19 11:08:24;;;;;;;2.53;0.65;;;;;;;10.55;70.92;96800.94;5072793;28;20055;-63
2022/09/19 11:10:51;;;;;;;2.97;0.65;;;;;;;10.60;71.35;96783.06;5073238;28;20062;-62
2022/09/19 11:13:22;;;;;;;1.83;0.82;;;;;;;10.61;71.67;96777.09;5072737;28;20048;-61
2022/09/19 11:16:08;;;;;;;4.22;0.60;;;;;;;10.62;71.68;96787.00;5073288;28;20440;-63
2022/09/19 11:18:50;;;;;;;1.60;0.63;;;;;;;10.59;71.82;96784.22;5072806;28;20036;-63
2022/09/19 11:21:44;;;;;;;1.00;0.50;;;;;;;10.53;72.60;96806.06;5073137;28;20052;-63
2022/09/19 11:24:36;;;;;;;0.40;0.40;;;;;;;10.54;72.69;96820.78;5073166;28;20180;-63
2022/09/19 11:27:30;;;;;;;2.40;0.63;;;;;;;10.38;73.14;96784.25;5093722;28;20052;-63
2022/09/19 11:30:13;;;;;;;0.80;0.50;;;;;;;10.42;73.04;96807.28;5113184;28;20126;-62
2022/09/19 11:33:06;;;;;;;0.80;0.55;;;;;;;10.46;73.20;96792.19;5112853;28;20044;-62
2022/09/19 11:35:49;;;;;;;1.90;0.60;;;;;;;10.48;73.34;96786.25;5094831;28;20052;-63
2022/09/19 11:38:32;;;;;;;0.93;0.60;;;;;;;10.48;73.35;96783.47;5092851;28;20135;-62
2022/09/19 11:41:34;;;;;;;1.45;0.70;;;;;;;10.41;73.52;96777.91;5092591;28;20526;-62
2022/09/19 11:44:04;;;;;;;1.27;0.68;;;;;;;10.34;74.36;96797.34;5110232;27;20051;-61
2022/09/19 11:47:00;;;;;;;0.75;0.60;;;;;;;10.34;74.16;96769.56;5114411;27;20508;-61
2022/09/19 11:49:50;;;;;;;1.00;0.57;;;;;;;10.23;74.63;96785.44;5099139;27;20043;-60
2022/09/19 11:52:20;;;;;;;;;;;;;;;10.05;75.98;96804.84;5114399;27;20563;-60
2022/09/19 11:54:59;;;;;;;1.80;0.55;;;;;;;10.13;75.50;96827.91;5074765;28;20022;-61
2022/09/19 11:57:37;;;;;;;1.85;0.50;;;;;;;10.14;75.38;96810.03;5111235;27;20062;-64
2022/09/19 12:00:16;;;;;;;0.65;0.45;;;;;;;10.05;75.16;96807.63;5115830;27;20138;-62
2022/09/19 12:03:03;;;;;;;1.45;0.47;;;;;;;9.98;76.47;96845.72;5087617;27;20104;-63
2022/09/19 12:06:01;;;;;;;0.70;0.68;;;;;;;9.91;76.21;96831.81;5101773;27;20102;-61
2022/09/19 12:08:57;;;;;;;2.00;1.00;;;;;;;9.77;76.31;96849.22;5110609;27;20039;-62
2022/09/19 12:11:37;;;;;;;1.95;0.47;;;;;;;9.74;77.11;96813.16;5107866;28;20498;-62
2022/09/19 12:14:12;;;;;;;0.93;0.60;;;;;;;9.76;77.51;96816.31;5112519;28;20486;-60
2022/09/19 12:16:44;;;;;;;0.40;0.40;;;;;;;9.71;77.07;96845.25;5119700;28;20120;-60
2022/09/19 12:19:29;;;;;;;4.85;0.60;;;;;;;9.62;77.85;96847.59;5098147;28;20040;-61
2022/09/19 12:22:13;;;;;;;1.20;0.40;;;;;;;9.59;78.16;96842.03;5094520;28;20067;-59